Fentress, Texas
Current Conditions -  °F | °C
As of 11:48 AM on Monday 24 Nov 2014 (Local Time) from KHYI Reporting Station
Clear Clear  
Wind Chill: 63°   Ceiling: Unl
Heat Index: 63°   Visibility: 10mi
Dew Point: 30°   Wind: 14mph
Humidity: 30%   Direction: 360°N
Pressure: 30.11"   Gusts: NA
Location:  29.76°N, 97.78°W
Report Text: KHYI 241748Z 36012KT 10SM CLR 17/M01 A3011
Loading
Personal Weather Stations






























Interactive Weather Map New forecast layout! Learn more

10-Day Weather Forecast

Advertisements
Track Severe Weather on mobile